Time;durP1;ratioP1;P1;durP2;ratioP2;P2;SDS_P1;SDS_P2;PMS_P1;PMS_P2;Temp;Humidity;BMP_temperature;BMP_pressure;BME280_temperature;BME280_humidity;BME280_pressure;Samples;Min_cycle;Max_cycle;Signal;HPM_P1;HPM_P2
2023/03/23 00:01:53;;;;;;;2.30;2.20;;;15.00;57.50;;;;;;5046101;28;20192;-85
2023/03/23 00:04:20;;;;;;;2.97;2.47;;;15.00;58.00;;;;;;5047039;28;20180;-86
2023/03/23 00:06:46;;;;;;;2.20;2.10;;;15.00;57.50;;;;;;5047051;28;20183;-84
2023/03/23 00:09:14;;;;;;;2.53;2.33;;;15.10;57.50;;;;;;5047140;28;20218;-86
2023/03/23 00:11:41;;;;;;;2.53;2.33;;;15.10;57.20;;;;;;5036131;28;20235;-83
2023/03/23 00:14:13;;;;;;;2.60;2.10;;;15.10;56.80;;;;;;5038340;28;20774;-86
2023/03/23 00:16:40;;;;;;;2.30;2.20;;;15.20;56.30;;;;;;5034988;28;20164;-82
2023/03/23 00:19:14;;;;;;;2.47;1.93;;;15.20;56.00;;;;;;5046809;28;20206;-86
2023/03/23 00:21:42;;;;;;;3.53;2.13;;;15.30;55.40;;;;;;5048143;28;20173;-83
2023/03/23 00:24:13;;;;;;;2.40;2.20;;;15.30;55.30;;;;;;5035596;28;20184;-84
2023/03/23 00:26:40;;;;;;;3.57;2.20;;;15.30;56.20;;;;;;5043233;28;20186;-82
2023/03/23 00:29:26;;;;;;;2.47;2.23;;;15.20;56.30;;;;;;5022479;28;20227;-86
2023/03/23 00:31:52;;;;;;;2.97;2.17;;;15.20;56.60;;;;;;5026419;28;20191;-83
2023/03/23 00:34:21;;;;;;;2.60;2.40;;;15.20;56.20;;;;;;5025947;28;20243;-84
2023/03/23 00:36:50;;;;;;;2.33;2.17;;;15.30;56.00;;;;;;5008218;28;20182;-84
2023/03/23 00:39:16;;;;;;;2.77;2.20;;;15.30;56.20;;;;;;5026258;28;20211;-84
2023/03/23 00:41:46;;;;;;;2.60;2.40;;;15.30;56.50;;;;;;5036879;28;20187;-85
2023/03/23 00:44:23;;;;;;;2.50;2.30;;;15.30;56.00;;;;;;5047382;28;20176;-84
2023/03/23 00:46:51;;;;;;;2.43;2.20;;;15.30;56.10;;;;;;5047774;28;20176;-84
2023/03/23 00:49:19;;;;;;;2.83;2.63;;;15.30;56.20;;;;;;5047953;28;20298;-84
2023/03/23 00:51:46;;;;;;;2.47;2.27;;;15.40;56.00;;;;;;5030032;28;20173;-85
2023/03/23 00:54:12;;;;;;;2.37;2.20;;;15.40;56.10;;;;;;5047165;28;20177;-85
2023/03/23 00:56:39;;;;;;;2.50;2.30;;;15.40;56.10;;;;;;5047337;28;20239;-86
2023/03/23 00:59:05;;;;;;;2.23;2.13;;;15.30;56.90;;;;;;5033241;28;20205;-85
2023/03/23 01:01:30;;;;;;;2.50;2.30;;;15.30;57.00;;;;;;5014245;28;20246;-84
2023/03/23 01:04:00;;;;;;;3.10;2.07;;;15.30;57.00;;;;;;5026792;28;20211;-84
2023/03/23 01:06:27;;;;;;;2.50;2.30;;;15.40;56.90;;;;;;5040999;28;20207;-84
2023/03/23 01:08:53;;;;;;;2.20;2.10;;;15.40;57.00;;;;;;5046215;28;20608;-84
2023/03/23 01:11:20;;;;;;;3.00;2.47;;;15.40;56.70;;;;;;5021243;28;20192;-85
2023/03/23 01:13:46;;;;;;;3.03;2.53;;;15.40;56.70;;;;;;5014505;28;20248;-84
2023/03/23 01:16:12;;;;;;;2.80;2.30;;;15.40;55.80;;;;;;5044554;28;20191;-86
2023/03/23 01:18:41;;;;;;;3.30;2.50;;;15.50;55.60;;;;;;5053746;28;20250;-85
2023/03/23 01:21:12;;;;;;;2.70;2.50;;;15.50;55.90;;;;;;5048190;28;20184;-84
2023/03/23 01:23:39;;;;;;;2.70;2.50;;;15.50;55.50;;;;;;5027065;28;20188;-86
2023/03/23 01:26:10;;;;;;;2.50;2.30;;;15.50;55.80;;;;;;5044955;28;20212;-85
2023/03/23 01:28:36;;;;;;;2.50;2.30;;;15.40;55.90;;;;;;5034851;28;20283;-84
2023/03/23 01:31:07;;;;;;;2.80;2.20;;;15.50;56.20;;;;;;5025640;28;20217;-84
2023/03/23 01:33:33;;;;;;;2.70;2.50;;;15.50;55.10;;;;;;5025192;28;20184;-84
2023/03/23 01:36:04;;;;;;;2.40;2.20;;;15.50;55.40;;;;;;5007673;28;20181;-83
2023/03/23 01:38:31;;;;;;;2.63;2.30;;;15.60;55.30;;;;;;5017269;28;20185;-84
2023/03/23 01:40:56;;;;;;;2.17;2.03;;;15.60;55.40;;;;;;5046585;28;20260;-85
2023/03/23 01:43:22;;;;;;;2.50;2.30;;;15.60;54.70;;;;;;5038447;28;20240;-84
2023/03/23 01:45:48;;;;;;;2.70;2.50;;;15.60;54.70;;;;;;5026476;28;20204;-84
2023/03/23 01:48:16;;;;;;;2.57;2.37;;;15.60;54.70;;;;;;5009934;28;20223;-86
2023/03/23 01:50:59;;;;;;;2.50;2.30;;;15.60;54.90;;;;;;5030968;28;20200;-83
2023/03/23 01:53:31;;;;;;;2.47;2.27;;;15.60;54.90;;;;;;5038268;28;20248;-88
2023/03/23 01:55:58;;;;;;;2.60;2.40;;;15.60;55.40;;;;;;5042824;28;20180;-88
2023/03/23 01:58:30;;;;;;;2.50;2.27;;;15.60;55.00;;;;;;5033153;28;20192;-90
2023/03/23 02:01:00;;;;;;;3.07;2.77;;;15.60;54.80;;;;;;5051348;28;20283;-87
2023/03/23 02:03:28;;;;;;;2.60;2.40;;;15.70;54.50;;;;;;5046504;28;20181;-85
2023/03/23 02:05:58;;;;;;;2.63;2.43;;;15.70;55.10;;;;;;5032340;28;20180;-85
2023/03/23 02:08:27;;;;;;;2.90;2.50;;;15.60;54.90;;;;;;5048477;28;20202;-89
2023/03/23 02:10:53;;;;;;;2.50;2.30;;;15.70;54.60;;;;;;5049665;28;20193;-89
2023/03/23 02:13:19;;;;;;;2.50;2.30;;;15.70;54.70;;;;;;5050391;28;20211;-84
2023/03/23 02:15:48;;;;;;;2.70;2.50;;;15.70;54.10;;;;;;5046333;28;20538;-87
2023/03/23 02:18:20;;;;;;;2.70;2.50;;;15.70;54.80;;;;;;5049335;28;20193;-86
2023/03/23 02:20:51;;;;;;;2.70;2.50;;;15.80;53.60;;;;;;5054496;28;20209;-86
2023/03/23 02:23:26;;;;;;;2.70;2.50;;;15.80;53.50;;;;;;5023488;28;20285;-86
2023/03/23 02:25:59;;;;;;;2.90;2.63;;;15.80;53.00;;;;;;5056339;28;20153;-89
2023/03/23 02:28:44;;;;;;;2.63;2.43;;;15.90;53.10;;;;;;5042725;28;20208;-82
2023/03/23 02:31:28;;;;;;;2.80;2.60;;;15.90;53.30;;;;;;5029564;28;20200;-87
2023/03/23 02:34:09;;;;;;;2.80;2.50;;;15.90;53.00;;;;;;5029539;28;20177;-87
2023/03/23 02:36:46;;;;;;;2.47;2.27;;;16.00;53.60;;;;;;5030018;28;20239;-86
2023/03/23 02:39:43;;;;;;;2.30;2.20;;;15.90;53.40;;;;;;5031263;28;20202;-86
2023/03/23 02:42:12;;;;;;;2.60;2.40;;;16.10;53.10;;;;;;5031926;28;20193;-84
2023/03/23 02:44:41;;;;;;;2.60;2.40;;;16.00;53.80;;;;;;5049477;28;20235;-88
2023/03/23 02:47:14;;;;;;;2.60;2.30;;;16.00;53.80;;;;;;5048502;28;20169;-88
2023/03/23 02:49:44;;;;;;;2.60;2.40;;;16.00;53.90;;;;;;5049613;28;20562;-87
2023/03/23 02:52:15;;;;;;;4.23;2.60;;;16.00;54.10;;;;;;5042456;28;20177;-88
2023/03/23 02:54:44;;;;;;;2.90;2.70;;;16.00;54.50;;;;;;5043495;28;20191;-84
2023/03/23 02:57:10;;;;;;;3.20;2.60;;;15.90;54.70;;;;;;5029517;28;20272;-90
2023/03/23 02:59:36;;;;;;;2.67;2.47;;;15.90;55.10;;;;;;5028816;28;20204;-86
2023/03/23 03:02:12;;;;;;;2.77;2.57;;;16.00;54.70;;;;;;5029575;28;20221;-86
2023/03/23 03:04:42;;;;;;;2.53;2.30;;;15.90;54.40;;;;;;5045945;28;20165;-89
2023/03/23 03:07:30;;;;;;;3.37;2.60;;;16.10;54.20;;;;;;5047798;28;20400;-88
2023/03/23 03:10:06;;;;;;;2.70;2.50;;;16.00;54.50;;;;;;5050105;28;20209;-85
2023/03/23 03:12:50;;;;;;;2.73;2.53;;;16.00;54.30;;;;;;5047244;28;20256;-85
2023/03/23 03:15:33;;;;;;;4.13;2.57;;;16.20;53.70;;;;;;5014427;28;20198;-86
2023/03/23 03:18:05;;;;;;;2.50;2.30;;;16.10;54.30;;;;;;5034862;28;20305;-86
2023/03/23 03:20:32;;;;;;;2.53;2.33;;;16.00;54.60;;;;;;5042232;28;20204;-88
2023/03/23 03:23:00;;;;;;;2.90;2.70;;;16.00;55.00;;;;;;5036867;28;20176;-82
2023/03/23 03:25:27;;;;;;;3.23;2.80;;;16.00;54.90;;;;;;5028167;28;20230;-86
2023/03/23 03:27:54;;;;;;;4.47;2.80;;;15.90;55.30;;;;;;5027701;28;20218;-87
2023/03/23 03:30:26;;;;;;;3.30;2.50;;;16.10;54.40;;;;;;5032343;28;20275;-88
2023/03/23 03:32:55;;;;;;;3.23;2.63;;;16.10;55.60;;;;;;5048364;28;20265;-91
2023/03/23 03:35:24;;;;;;;2.80;2.60;;;16.10;56.00;;;;;;5040647;28;20204;-85
2023/03/23 03:37:51;;;;;;;3.00;2.70;;;16.00;56.20;;;;;;5038548;28;20230;-87
2023/03/23 03:40:19;;;;;;;2.90;2.70;;;15.90;57.10;;;;;;5044529;28;20211;-86
2023/03/23 03:42:46;;;;;;;3.23;2.50;;;15.80;57.00;;;;;;5048578;28;20192;-86
2023/03/23 03:45:15;;;;;;;3.10;2.80;;;15.90;56.60;;;;;;5029603;28;20241;-86
2023/03/23 03:47:41;;;;;;;2.80;2.60;;;15.90;56.90;;;;;;5013355;28;20243;-85
2023/03/23 03:50:07;;;;;;;2.87;2.67;;;15.80;57.40;;;;;;5038985;28;20204;-88
2023/03/23 03:52:34;;;;;;;3.33;2.60;;;15.80;57.70;;;;;;5048859;28;20174;-85
2023/03/23 03:54:59;;;;;;;2.70;2.50;;;15.70;58.30;;;;;;5047588;28;20182;-89
2023/03/23 03:57:26;;;;;;;3.20;2.90;;;15.70;58.70;;;;;;5046637;28;20199;-84
2023/03/23 03:59:52;;;;;;;2.83;2.50;;;15.60;58.60;;;;;;5045528;28;20200;-85
2023/03/23 04:02:19;;;;;;;2.70;2.50;;;15.80;58.50;;;;;;5045002;28;20169;-86
2023/03/23 04:04:47;;;;;;;2.80;2.57;;;15.60;58.90;;;;;;5033766;28;20186;-87
2023/03/23 04:07:13;;;;;;;4.07;2.73;;;15.70;58.80;;;;;;5047446;28;20235;-87
2023/03/23 04:09:40;;;;;;;2.93;2.60;;;15.70;59.20;;;;;;5046219;28;20758;-87
2023/03/23 04:12:06;;;;;;;2.77;2.50;;;15.60;58.60;;;;;;5047623;28;20173;-86
2023/03/23 04:14:32;;;;;;;2.87;2.67;;;15.70;59.10;;;;;;5034648;28;20254;-88
2023/03/23 04:16:58;;;;;;;4.13;2.43;;;15.60;59.30;;;;;;5027813;28;20184;-86
2023/03/23 04:19:24;;;;;;;2.87;2.60;;;15.60;59.70;;;;;;5028152;28;20204;-88
2023/03/23 04:21:51;;;;;;;2.73;2.37;;;15.70;59.90;;;;;;5041891;28;20189;-86
2023/03/23 04:24:21;;;;;;;3.43;3.13;;;15.60;60.20;;;;;;5035585;28;20193;-88
2023/03/23 04:26:47;;;;;;;3.50;2.80;;;15.60;60.70;;;;;;5026821;28;20192;-88
2023/03/23 04:29:33;;;;;;;3.93;2.73;;;15.50;61.20;;;;;;5026492;28;20243;-84
2023/03/23 04:32:00;;;;;;;2.83;2.63;;;15.50;61.50;;;;;;5028749;28;20177;-85
2023/03/23 04:34:26;;;;;;;3.20;2.93;;;15.40;61.50;;;;;;5026925;28;20174;-88
2023/03/23 04:36:52;;;;;;;3.30;2.83;;;15.30;62.70;;;;;;5028454;28;20239;-86
2023/03/23 04:39:18;;;;;;;2.60;2.40;;;15.20;63.30;;;;;;5042870;28;20212;-86
2023/03/23 04:41:45;;;;;;;2.67;2.47;;;15.20;62.10;;;;;;5048343;28;20267;-87
2023/03/23 04:44:17;;;;;;;3.50;2.80;;;15.10;63.10;;;;;;5048657;28;20187;-89
2023/03/23 04:46:45;;;;;;;3.50;3.00;;;15.30;61.90;;;;;;5047321;28;20181;-87
2023/03/23 04:49:10;;;;;;;2.90;2.70;;;15.40;60.50;;;;;;5047048;28;20214;-87
2023/03/23 04:51:36;;;;;;;3.27;2.73;;;15.30;61.40;;;;;;5030340;28;20498;-85
2023/03/23 04:54:02;;;;;;;3.07;2.80;;;15.30;61.40;;;;;;5048211;28;20188;-85
2023/03/23 04:56:27;;;;;;;2.77;2.57;;;15.30;61.80;;;;;;5029017;28;20177;-84
2023/03/23 04:58:53;;;;;;;2.70;2.50;;;15.40;61.60;;;;;;5027010;28;20196;-85
2023/03/23 05:01:19;;;;;;;2.97;2.63;;;15.30;62.00;;;;;;5037732;28;20202;-88
2023/03/23 05:03:45;;;;;;;3.00;2.80;;;15.20;62.40;;;;;;5030743;28;20192;-88
2023/03/23 05:06:11;;;;;;;2.90;2.57;;;15.20;62.30;;;;;;5047543;28;20227;-86
2023/03/23 05:08:39;;;;;;;5.17;3.10;;;15.20;62.00;;;;;;5047072;28;20212;-87
2023/03/23 05:11:06;;;;;;;3.27;2.97;;;15.20;63.20;;;;;;5036849;28;20445;-84
2023/03/23 05:13:32;;;;;;;3.40;3.10;;;15.20;64.20;;;;;;5026010;28;20183;-87
2023/03/23 05:16:02;;;;;;;3.60;3.30;;;15.20;64.60;;;;;;5025582;28;20174;-87
2023/03/23 05:18:28;;;;;;;3.43;3.13;;;15.10;67.10;;;;;;5023095;28;20268;-86
2023/03/23 05:20:54;;;;;;;4.07;3.67;;;15.10;66.80;;;;;;5035955;28;20209;-88
2023/03/23 05:23:26;;;;;;;4.00;3.70;;;15.10;67.10;;;;;;5042157;28;20204;-84
2023/03/23 05:25:55;;;;;;;7.80;7.20;;;15.10;66.80;;;;;;5040813;28;20181;-84
2023/03/23 05:28:21;;;;;;;3.20;3.00;;;15.00;66.90;;;;;;5030524;28;20208;-86
2023/03/23 05:30:48;;;;;;;3.53;3.23;;;15.00;67.00;;;;;;5022626;28;20305;-83
2023/03/23 05:33:13;;;;;;;3.63;3.33;;;15.00;66.80;;;;;;5038039;28;20186;-82
2023/03/23 05:35:39;;;;;;;4.03;3.63;;;15.00;66.40;;;;;;5036088;28;20202;-84
2023/03/23 05:38:05;;;;;;;4.03;3.70;;;14.90;67.70;;;;;;5024735;28;20266;-87
2023/03/23 05:40:30;;;;;;;5.70;5.20;;;14.80;67.90;;;;;;5032445;28;20207;-82
2023/03/23 05:42:58;;;;;;;3.93;3.40;;;14.90;67.60;;;;;;5036159;28;20183;-83
2023/03/23 05:45:26;;;;;;;3.33;3.13;;;14.80;67.80;;;;;;5036527;28;20180;-85
2023/03/23 05:47:52;;;;;;;4.10;3.47;;;14.80;69.10;;;;;;5034936;28;20210;-83
2023/03/23 05:50:17;;;;;;;3.63;3.40;;;14.80;68.90;;;;;;5038479;28;20197;-88
2023/03/23 05:52:43;;;;;;;3.60;3.30;;;14.70;68.80;;;;;;5041883;28;20185;-83
2023/03/23 05:55:09;;;;;;;3.50;3.20;;;14.70;68.90;;;;;;5039901;28;20177;-86
2023/03/23 05:57:35;;;;;;;3.23;2.93;;;14.60;69.20;;;;;;5051886;28;20184;-81
2023/03/23 06:00:11;;;;;;;5.33;3.13;;;14.40;70.60;;;;;;5052777;28;20685;-82
2023/03/23 06:02:37;;;;;;;4.03;3.43;;;14.40;69.60;;;;;;5045126;28;20179;-81
2023/03/23 06:05:03;;;;;;;3.60;3.30;;;14.50;70.50;;;;;;5047829;28;20178;-86
2023/03/23 06:07:29;;;;;;;5.00;3.47;;;14.40;71.30;;;;;;5043270;28;20181;-89
2023/03/23 06:09:54;;;;;;;3.73;3.30;;;14.20;72.20;;;;;;5044689;28;20197;-87
2023/03/23 06:12:20;;;;;;;3.43;3.07;;;14.10;74.20;;;;;;5044219;28;20187;-85
2023/03/23 06:14:48;;;;;;;4.03;3.60;;;14.10;74.40;;;;;;5029743;28;20196;-89
2023/03/23 06:17:14;;;;;;;3.40;3.07;;;14.20;73.40;;;;;;5023476;28;20181;-86
2023/03/23 06:19:40;;;;;;;3.83;3.53;;;14.20;74.00;;;;;;5038570;28;20868;-87
2023/03/23 06:22:06;;;;;;;5.03;3.63;;;14.20;73.70;;;;;;5047031;28;20214;-85
2023/03/23 06:24:32;;;;;;;4.20;3.80;;;14.20;73.00;;;;;;5044911;28;20617;-90
2023/03/23 06:26:59;;;;;;;4.50;3.83;;;14.20;72.70;;;;;;5030226;28;20195;-86
2023/03/23 06:29:25;;;;;;;7.20;4.50;;;14.20;73.90;;;;;;5045596;28;20216;-81
2023/03/23 06:31:57;;;;;;;4.93;4.37;;;14.10;73.10;;;;;;5032649;28;20187;-86
2023/03/23 06:34:23;;;;;;;5.30;3.90;;;14.10;75.10;;;;;;5024601;28;20185;-86
2023/03/23 06:36:49;;;;;;;4.30;3.83;;;14.10;73.70;;;;;;5024609;28;20190;-84
2023/03/23 06:39:15;;;;;;;4.10;3.70;;;14.10;76.10;;;;;;5024472;28;20203;-86
2023/03/23 06:41:41;;;;;;;4.53;3.90;;;14.00;78.00;;;;;;5036145;28;20182;-89
2023/03/23 06:44:08;;;;;;;4.10;3.60;;;14.00;78.60;;;;;;5068293;28;20180;-83
2023/03/23 06:46:34;;;;;;;4.23;3.83;;;13.90;77.50;;;;;;5050398;28;20392;-82
2023/03/23 06:48:59;;;;;;;3.90;3.60;;;14.00;77.70;;;;;;5068404;28;20753;-88
2023/03/23 06:51:25;;;;;;;4.00;3.30;;;13.90;78.40;;;;;;5065495;28;20178;-89
2023/03/23 06:53:51;;;;;;;3.60;3.30;;;14.00;75.50;;;;;;5047308;28;20205;-86
2023/03/23 06:56:16;;;;;;;3.67;3.30;;;14.00;75.60;;;;;;5017803;28;20679;-90
2023/03/23 06:58:42;;;;;;;3.77;3.47;;;14.00;74.70;;;;;;5046404;28;20181;-87
2023/03/23 07:01:09;;;;;;;3.93;3.07;;;14.00;75.20;;;;;;5044981;28;20178;-84
2023/03/23 07:03:35;;;;;;;3.47;3.17;;;14.00;75.30;;;;;;5028636;28;20188;-87
2023/03/23 07:06:01;;;;;;;3.53;2.90;;;14.00;75.80;;;;;;5043546;28;20186;-87
2023/03/23 07:08:27;;;;;;;3.83;3.30;;;14.00;75.90;;;;;;5045809;28;20304;-85
2023/03/23 07:10:54;;;;;;;5.40;3.13;;;14.00;76.50;;;;;;5046329;28;20201;-87
2023/03/23 07:13:20;;;;;;;3.23;2.93;;;13.90;76.90;;;;;;5033692;28;20194;-82
2023/03/23 07:15:46;;;;;;;4.37;2.93;;;13.90;77.50;;;;;;5026698;28;20201;-84
2023/03/23 07:18:12;;;;;;;3.40;3.10;;;13.80;79.40;;;;;;5027683;28;20240;-85
2023/03/23 07:20:37;;;;;;;3.67;3.27;;;13.70;80.70;;;;;;5038319;28;20217;-85
2023/03/23 07:23:06;;;;;;;3.40;3.10;;;13.70;81.30;;;;;;5049061;28;20186;-83
2023/03/23 07:25:32;;;;;;;4.33;2.90;;;13.70;83.70;;;;;;5049144;28;20206;-86
2023/03/23 07:28:02;;;;;;;3.90;3.50;;;13.70;83.80;;;;;;5049663;28;20203;-87
2023/03/23 07:30:29;;;;;;;3.37;3.17;;;13.70;84.60;;;;;;5036730;28;20228;-85
2023/03/23 07:32:58;;;;;;;3.50;3.20;;;13.70;87.60;;;;;;5033094;28;20204;-82
2023/03/23 07:35:25;;;;;;;3.63;3.33;;;13.80;89.20;;;;;;5048618;28;20174;-86
2023/03/23 07:37:52;;;;;;;4.20;3.20;;;13.80;86.50;;;;;;5053459;28;20162;-86
2023/03/23 07:40:18;;;;;;;3.73;3.30;;;13.90;83.70;;;;;;5053379;28;20196;-88
2023/03/23 07:42:49;;;;;;;3.80;3.03;;;14.00;82.50;;;;;;5053731;28;20191;-82
2023/03/23 07:45:15;;;;;;;3.50;3.20;;;13.90;83.00;;;;;;5053592;28;20161;-84
2023/03/23 07:47:41;;;;;;;3.50;2.90;;;14.00;81.10;;;;;;5042046;28;20190;-87
2023/03/23 07:50:07;;;;;;;5.13;2.67;;;14.00;81.90;;;;;;5034674;28;20221;-82
2023/03/23 07:52:33;;;;;;;2.97;2.67;;;14.10;83.20;;;;;;5033884;28;20225;-87
2023/03/23 07:55:01;;;;;;;3.80;2.70;;;14.10;82.30;;;;;;5037796;28;20192;-87
2023/03/23 07:57:27;;;;;;;3.17;2.90;;;14.10;81.40;;;;;;5018987;28;20186;-89
2023/03/23 07:59:53;;;;;;;3.20;2.77;;;14.20;82.60;;;;;;5017444;28;20210;-86
2023/03/23 08:02:19;;;;;;;4.00;3.20;;;14.20;82.10;;;;;;5035111;28;20241;-86
2023/03/23 08:04:45;;;;;;;3.90;3.20;;;14.20;80.30;;;;;;5017968;28;20190;-82
2023/03/23 08:07:12;;;;;;;3.90;3.10;;;14.20;81.30;;;;;;5035406;28;20194;-87
2023/03/23 08:09:38;;;;;;;3.13;2.83;;;14.30;79.40;;;;;;5037844;28;20214;-87
2023/03/23 08:12:04;;;;;;;3.27;2.97;;;14.40;77.60;;;;;;5033782;28;20185;-86
2023/03/23 08:14:30;;;;;;;2.93;2.60;;;14.50;77.70;;;;;;5036166;28;20192;-83
2023/03/23 08:16:57;;;;;;;3.50;2.70;;;14.60;77.70;;;;;;5038129;28;20201;-87
2023/03/23 08:19:23;;;;;;;2.63;2.43;;;14.60;78.30;;;;;;5021867;28;20210;-86
2023/03/23 08:21:49;;;;;;;2.90;2.60;;;14.60;76.30;;;;;;5034778;28;20941;-83
2023/03/23 08:24:16;;;;;;;3.53;2.70;;;14.70;76.90;;;;;;5039338;28;20198;-89
2023/03/23 08:26:42;;;;;;;2.80;2.60;;;14.70;76.40;;;;;;5039041;28;20194;-87
2023/03/23 08:29:08;;;;;;;3.07;2.43;;;14.70;78.10;;;;;;5036719;28;20230;-84
2023/03/23 08:31:35;;;;;;;4.23;2.73;;;14.70;78.20;;;;;;5035854;28;20198;-83
2023/03/23 08:34:07;;;;;;;2.90;2.70;;;14.80;77.70;;;;;;5038438;28;20183;-82
2023/03/23 08:36:34;;;;;;;2.77;2.47;;;14.90;76.70;;;;;;5037175;28;20193;-84
2023/03/23 08:39:00;;;;;;;2.97;2.77;;;15.00;76.90;;;;;;5035376;28;20188;-85
2023/03/23 08:41:26;;;;;;;3.17;2.90;;;15.10;76.60;;;;;;5038351;28;20214;-83
2023/03/23 08:43:52;;;;;;;2.80;2.60;;;15.30;74.60;;;;;;5035919;28;20327;-86
2023/03/23 08:46:19;;;;;;;2.80;2.53;;;15.30;75.20;;;;;;5031972;28;20743;-82
2023/03/23 08:48:45;;;;;;;2.90;2.70;;;15.40;76.20;;;;;;5017271;28;20238;-82
2023/03/23 08:51:11;;;;;;;3.60;3.30;;;15.40;74.20;;;;;;5037707;28;20177;-80
2023/03/23 08:53:38;;;;;;;3.97;3.17;;;15.30;74.20;;;;;;5034521;28;20192;-84
2023/03/23 08:56:09;;;;;;;3.60;3.30;;;15.10;73.60;;;;;;5034422;28;20638;-84
2023/03/23 08:58:38;;;;;;;4.43;2.87;;;15.20;74.90;;;;;;5035945;28;20181;-81
2023/03/23 09:01:10;;;;;;;3.53;2.80;;;15.10;74.80;;;;;;5035715;28;20205;-84
2023/03/23 09:03:36;;;;;;;3.03;2.80;;;15.10;74.30;;;;;;5015172;28;20195;-85
2023/03/23 09:06:05;;;;;;;2.90;2.70;;;15.00;76.30;;;;;;5036024;28;20207;-84
2023/03/23 09:08:31;;;;;;;2.80;2.60;;;15.00;79.50;;;;;;5035442;28;20224;-81
2023/03/23 09:11:02;;;;;;;3.00;2.80;;;14.90;78.80;;;;;;5033865;28;20946;-83
2023/03/23 09:13:28;;;;;;;3.27;2.97;;;14.90;79.50;;;;;;5031077;28;20237;-83
2023/03/23 09:15:53;;;;;;;2.53;2.33;;;14.70;81.40;;;;;;5034668;28;20184;-81
2023/03/23 09:18:19;;;;;;;2.73;2.50;;;14.70;81.00;;;;;;5032597;28;20189;-83
2023/03/23 09:20:48;;;;;;;3.80;2.30;;;14.70;83.40;;;;;;5031404;28;20276;-81
2023/03/23 09:23:24;;;;;;;3.53;2.37;;;14.60;82.90;;;;;;5033688;28;20217;-83
2023/03/23 09:25:51;;;;;;;2.73;2.50;;;14.60;83.90;;;;;;5036142;28;20173;-82
2023/03/23 09:28:17;;;;;;;2.60;2.40;;;14.60;82.50;;;;;;5032517;28;20298;-83
2023/03/23 09:30:45;;;;;;;2.60;2.40;;;14.60;82.50;;;;;;5032339;28;20224;-83
2023/03/23 09:33:11;;;;;;;2.73;2.40;;;14.60;83.30;;;;;;5033041;28;20177;-84
2023/03/23 09:35:38;;;;;;;2.27;2.10;;;14.40;82.80;;;;;;5034580;28;20177;-83
2023/03/23 09:38:05;;;;;;;2.70;2.50;;;14.30;82.50;;;;;;5033933;28;20248;-82
2023/03/23 09:40:40;;;;;;;2.40;2.20;;;14.40;82.60;;;;;;5033848;28;20204;-84
2023/03/23 09:43:15;;;;;;;4.43;2.57;;;14.40;82.90;;;;;;5031337;28;20185;-84
2023/03/23 09:46:01;;;;;;;2.40;2.20;;;14.40;81.40;;;;;;5034457;28;20198;-82
2023/03/23 09:48:48;;;;;;;2.80;2.60;;;14.30;84.60;;;;;;5030728;28;20199;-81
2023/03/23 09:51:30;;;;;;;4.23;2.50;;;14.20;89.80;;;;;;5030593;28;20178;-80
2023/03/23 09:54:05;;;;;;;2.83;2.40;;;14.10;92.30;;;;;;5030511;28;20173;-81
2023/03/23 09:56:33;;;;;;;3.00;2.10;;;14.00;94.50;;;;;;5030981;28;20212;-82
2023/03/23 09:59:14;;;;;;;2.43;2.23;;;14.00;93.50;;;;;;5033585;28;20244;-82
2023/03/23 10:01:48;;;;;;;2.27;2.07;;;14.00;94.20;;;;;;5034969;28;20187;-83
2023/03/23 10:04:32;;;;;;;6.47;2.40;;;13.90;93.40;;;;;;5013746;28;20181;-82
2023/03/23 10:07:19;;;;;;;2.13;1.93;;;13.90;94.40;;;;;;5031608;28;20369;-84
2023/03/23 10:10:03;;;;;;;2.33;2.13;;;13.90;95.00;;;;;;5031505;28;20428;-82
2023/03/23 10:12:55;;;;;;;2.57;2.37;;;13.80;94.50;;;;;;5031377;28;20185;-82
2023/03/23 10:15:27;;;;;;;2.23;2.07;;;14.00;93.80;;;;;;5023721;28;20441;-83
2023/03/23 10:18:01;;;;;;;2.20;2.00;;;14.00;92.90;;;;;;5040613;28;20188;-84
2023/03/23 10:20:43;;;;;;;2.57;2.00;;;13.90;93.00;;;;;;5040709;28;20231;-80
2023/03/23 10:23:33;;;;;;;2.43;2.10;;;14.00;93.40;;;;;;5036258;28;20189;-83
2023/03/23 10:26:12;;;;;;;2.40;2.20;;;14.00;93.40;;;;;;5040066;28;20181;-82
2023/03/23 10:28:44;;;;;;;3.70;2.50;;;14.00;93.80;;;;;;5040304;28;20252;-80
2023/03/23 10:31:34;;;;;;;2.80;2.60;;;13.90;97.10;;;;;;5034441;28;20230;-85
2023/03/23 10:34:10;;;;;;;2.50;2.30;;;13.90;95.60;;;;;;5038055;28;20194;-80
2023/03/23 10:36:55;;;;;;;2.20;2.10;;;13.90;97.90;;;;;;5038906;28;20172;-84
2023/03/23 10:39:25;;;;;;;2.50;2.30;;;13.90;97.50;;;;;;5022752;28;20303;-82
2023/03/23 10:41:52;;;;;;;2.20;2.10;;;13.80;97.30;;;;;;5033787;28;21006;-83
2023/03/23 10:44:25;;;;;;;3.40;2.70;;;13.80;96.10;;;;;;5036870;28;20200;-82
2023/03/23 10:47:02;;;;;;;2.50;2.30;;;14.00;94.70;;;;;;5036729;28;20304;-83
2023/03/23 10:49:54;;;;;;;2.47;2.23;;;14.10;95.40;;;;;;5036446;28;20209;-83
2023/03/23 10:52:26;;;;;;;2.80;2.60;;;14.10;93.10;;;;;;5037777;28;20189;-82
2023/03/23 10:55:15;;;;;;;2.77;2.57;;;14.10;93.90;;;;;;5041987;28;20205;-85
2023/03/23 10:58:03;;;;;;;3.17;2.30;;;14.20;93.90;;;;;;5039028;28;20552;-83
2023/03/23 11:00:30;;;;;;;2.70;2.50;;;14.20;90.60;;;;;;5021020;28;21370;-84
2023/03/23 11:02:58;;;;;;;2.60;2.40;;;14.30;91.70;;;;;;5037523;28;20195;-83
2023/03/23 11:05:32;;;;;;;2.60;2.40;;;14.40;92.20;;;;;;5043163;28;20181;-81
2023/03/23 11:07:59;;;;;;;2.73;2.53;;;14.40;91.10;;;;;;5039172;28;20206;-84
2023/03/23 11:10:40;;;;;;;2.90;2.43;;;14.30;89.90;;;;;;5037268;28;20217;-82
2023/03/23 11:13:13;;;;;;;2.70;2.50;;;14.30;93.20;;;;;;5037212;28;20183;-83
2023/03/23 11:15:41;;;;;;;2.83;2.63;;;14.20;93.00;;;;;;5037672;28;20257;-83
2023/03/23 11:18:11;;;;;;;3.33;3.03;;;14.30;94.90;;;;;;5040129;28;20186;-82
2023/03/23 11:20:44;;;;;;;2.80;2.60;;;14.30;93.00;;;;;;5017997;28;20216;-80
2023/03/23 11:23:23;;;;;;;2.83;2.60;;;14.30;90.80;;;;;;5033559;28;20190;-84
2023/03/23 11:26:01;;;;;;;2.57;2.37;;;14.40;89.70;;;;;;5036973;28;20236;-83
2023/03/23 11:28:33;;;;;;;3.00;2.60;;;14.40;88.50;;;;;;5038003;28;20205;-83
2023/03/23 11:31:02;;;;;;;3.37;3.10;;;14.50;85.90;;;;;;5038943;28;20234;-84
2023/03/23 11:33:41;;;;;;;2.80;2.60;;;14.60;85.90;;;;;;5034432;28;20196;-83
2023/03/23 11:36:08;;;;;;;4.27;3.30;;;14.60;83.30;;;;;;5036367;28;20236;-82
2023/03/23 11:38:34;;;;;;;3.07;2.87;;;14.50;83.50;;;;;;5036234;28;20213;-83
2023/03/23 11:41:00;;;;;;;2.67;2.47;;;14.60;82.10;;;;;;5019818;28;20201;-83
2023/03/23 11:43:26;;;;;;;2.60;2.30;;;14.60;84.20;;;;;;5035570;28;20258;-83
2023/03/23 11:45:55;;;;;;;2.60;2.40;;;14.70;81.10;;;;;;5038556;28;20189;-85
2023/03/23 11:48:59;;;;;;;3.47;2.40;;;14.80;81.60;;;;;;5040127;28;20207;-83
2023/03/23 11:51:33;;;;;;;2.30;2.10;;;14.80;78.90;;;;;;4955264;28;20206;-82
2023/03/23 11:54:11;;;;;;;2.70;2.50;;;14.80;80.60;;;;;;4956338;28;20189;-84
2023/03/23 11:56:41;;;;;;;2.57;2.37;;;14.80;80.70;;;;;;4993791;28;20220;-83
2023/03/23 11:59:20;;;;;;;2.33;2.17;;;14.80;79.30;;;;;;5036477;28;20221;-84
2023/03/23 12:02:20;;;;;;;2.67;2.47;;;14.90;78.40;;;;;;5036748;28;20561;-81
2023/03/23 12:04:48;;;;;;;2.37;2.17;;;14.90;78.50;;;;;;5034934;28;20210;-82
2023/03/23 12:07:31;;;;;;;3.73;2.20;;;15.10;76.90;;;;;;5039557;28;20216;-82
2023/03/23 12:10:06;;;;;;;2.20;2.00;;;15.10;74.40;;;;;;5038107;28;20220;-84
2023/03/23 12:12:49;;;;;;;2.30;2.20;;;15.20;78.40;;;;;;5038263;28;20215;-82
2023/03/23 12:15:52;;;;;;;2.20;2.10;;;15.20;76.60;;;;;;5038306;28;20185;-83
2023/03/23 12:18:24;;;;;;;2.67;2.33;;;15.20;80.60;;;;;;5038225;28;20206;-84
2023/03/23 12:21:19;;;;;;;2.30;2.20;;;15.30;73.90;;;;;;5038354;28;20295;-85
2023/03/23 12:24:10;;;;;;;2.37;2.20;;;15.40;75.10;;;;;;5039020;28;20186;-83
2023/03/23 12:27:08;;;;;;;2.23;2.07;;;15.40;72.80;;;;;;5018835;28;20269;-85
2023/03/23 12:29:40;;;;;;;2.80;2.17;;;15.40;74.20;;;;;;5032043;28;20234;-85
2023/03/23 12:32:09;;;;;;;2.10;2.00;;;15.30;72.60;;;;;;5036702;28;20188;-83
2023/03/23 12:35:06;;;;;;;2.23;2.07;;;15.50;70.80;;;;;;5039944;28;20311;-83
2023/03/23 12:37:35;;;;;;;2.17;2.07;;;15.50;70.00;;;;;;5039219;28;20203;-82
2023/03/23 12:40:25;;;;;;;2.17;2.07;;;15.40;72.00;;;;;;5036034;28;20208;-85
2023/03/23 12:43:08;;;;;;;2.50;2.30;;;15.40;71.70;;;;;;5036219;28;20184;-84
2023/03/23 12:46:12;;;;;;;3.33;2.03;;;15.50;71.30;;;;;;5019618;28;20483;-83
2023/03/23 12:48:50;;;;;;;2.67;2.47;;;15.60;71.40;;;;;;5038020;28;20210;-85
2023/03/23 12:51:23;;;;;;;2.17;2.07;;;15.60;70.90;;;;;;5016779;28;20187;-82
2023/03/23 12:54:16;;;;;;;3.07;2.87;;;15.50;70.90;;;;;;5038030;28;20191;-87
2023/03/23 12:57:10;;;;;;;2.50;2.30;;;15.50;72.90;;;;;;5040784;28;20196;-85
2023/03/23 12:59:59;;;;;;;2.70;2.50;;;15.70;71.20;;;;;;5041680;28;20228;-85
2023/03/23 13:02:36;;;;;;;2.43;2.27;;;15.70;71.10;;;;;;5039310;28;20186;-84
2023/03/23 13:05:33;;;;;;;5.30;4.90;;;15.70;71.00;;;;;;5041723;28;20175;-82
2023/03/23 13:08:00;;;;;;;2.40;2.20;;;15.70;69.90;;;;;;5042223;28;20200;-84